createdAt,value
2023-02-23T00:00:28.983Z,44.38
2023-02-23T00:02:58.996Z,40.70
2023-02-23T00:05:26.518Z,45.13
2023-02-23T00:07:54.074Z,41.38
2023-02-23T00:10:22.101Z,43.10
2023-02-23T00:12:51.541Z,39.75
2023-02-23T00:15:17.944Z,44.67
2023-02-23T00:17:44.369Z,42.00
2023-02-23T00:20:11.998Z,41.88
2023-02-23T00:22:40.188Z,42.65
2023-02-23T00:25:11.721Z,44.13
2023-02-23T00:27:44.096Z,43.90
2023-02-23T00:30:12.978Z,47.77
2023-02-23T00:32:39.490Z,44.03
2023-02-23T00:35:11.682Z,51.85
2023-02-23T00:37:38.066Z,42.65
2023-02-23T00:40:16.444Z,46.67
2023-02-23T00:42:47.696Z,45.47
2023-02-23T00:45:14.275Z,45.85
2023-02-23T00:47:43.375Z,49.85
2023-02-23T00:50:16.136Z,48.20
2023-02-23T00:52:43.816Z,41.25
2023-02-23T00:55:15.020Z,43.63
2023-02-23T00:57:41.504Z,55.13
2023-02-23T01:00:28.650Z,50.47
2023-02-23T01:02:55.690Z,43.90
2023-02-23T01:05:22.158Z,55.53
2023-02-23T01:07:49.214Z,49.93
2023-02-23T01:10:21.817Z,47.80
2023-02-23T01:12:50.442Z,50.70
2023-02-23T01:15:18.182Z,50.30
2023-02-23T01:17:45.501Z,50.00
2023-02-23T01:20:20.251Z,56.00
2023-02-23T01:22:49.823Z,51.35
2023-02-23T01:25:17.880Z,46.78
2023-02-23T01:27:45.054Z,46.05
2023-02-23T01:30:14.760Z,54.22
2023-02-23T01:32:41.456Z,50.63
2023-02-23T01:35:10.432Z,47.25
2023-02-23T01:37:40.538Z,48.88
2023-02-23T01:40:31.325Z,50.20
2023-02-23T01:43:14.785Z,51.03
2023-02-23T01:45:43.413Z,47.17
2023-02-23T01:48:13.818Z,51.92
2023-02-23T01:51:01.591Z,49.78
2023-02-23T01:53:34.096Z,49.95
2023-02-23T01:56:11.420Z,52.58
2023-02-23T01:58:43.633Z,49.50
2023-02-23T02:01:11.358Z,53.28
2023-02-23T02:03:46.739Z,50.53
2023-02-23T02:06:16.434Z,50.25
2023-02-23T02:08:48.590Z,50.05
2023-02-23T02:11:36.972Z,50.10
2023-02-23T02:14:13.090Z,53.38
2023-02-23T02:16:52.729Z,50.35
2023-02-23T02:19:50.194Z,52.42
2023-02-23T02:22:51.521Z,47.45
2023-02-23T02:25:32.964Z,48.33
2023-02-23T02:28:29.833Z,49.67
2023-02-23T02:31:16.472Z,46.45
2023-02-23T02:34:00.979Z,42.95
2023-02-23T02:37:00.321Z,48.10
2023-02-23T02:39:39.500Z,46.87
2023-02-23T02:42:23.568Z,50.80
2023-02-23T02:45:01.719Z,49.25
2023-02-23T02:47:43.114Z,46.60
2023-02-23T02:50:15.754Z,49.72
2023-02-23T02:52:54.311Z,49.00
2023-02-23T02:55:26.503Z,50.53
2023-02-23T02:57:57.203Z,49.88
2023-02-23T03:01:07.174Z,45.90
2023-02-23T03:03:55.869Z,49.28
2023-02-23T03:06:47.740Z,50.37
2023-02-23T03:09:51.195Z,52.63
2023-02-23T03:12:53.318Z,47.38
2023-02-23T03:16:09.737Z,46.70
2023-02-23T03:19:05.932Z,50.40
2023-02-23T03:22:11.085Z,51.30
2023-02-23T03:25:17.007Z,50.05
2023-02-23T03:28:36.910Z,53.20
2023-02-23T03:31:24.822Z,48.85
2023-02-23T03:34:18.810Z,48.10
2023-02-23T03:37:10.166Z,50.53
2023-02-23T03:40:06.228Z,48.55
2023-02-23T03:42:55.215Z,51.47
2023-02-23T03:45:44.182Z,49.80
2023-02-23T03:48:31.929Z,47.88
2023-02-23T03:51:24.313Z,45.77
2023-02-23T03:54:17.183Z,51.08
2023-02-23T03:57:06.513Z,52.90
2023-02-23T03:59:58.644Z,51.45
2023-02-23T04:02:45.064Z,49.40
2023-02-23T04:05:35.356Z,50.17
2023-02-23T04:08:24.858Z,48.80
2023-02-23T04:11:17.579Z,46.50
2023-02-23T04:13:48.784Z,49.85
2023-02-23T04:16:15.315Z,49.85
2023-02-23T04:18:42.568Z,46.83
2023-02-23T04:21:09.050Z,49.70
2023-02-23T04:23:37.726Z,50.63
2023-02-23T04:26:05.072Z,44.90
2023-02-23T04:28:31.639Z,47.97
2023-02-23T04:30:58.103Z,47.70
2023-02-23T04:33:27.183Z,48.85
2023-02-23T04:35:54.499Z,47.88
2023-02-23T04:38:21.814Z,48.60
2023-02-23T04:40:48.344Z,46.40
2023-02-23T04:43:15.076Z,47.10
2023-02-23T04:45:42.186Z,51.15
2023-02-23T04:48:08.712Z,44.28
2023-02-23T04:50:35.412Z,45.75
2023-02-23T04:53:01.840Z,46.55
2023-02-23T04:55:28.691Z,50.90
2023-02-23T04:58:00.635Z,48.85
2023-02-23T05:00:29.371Z,47.47
2023-02-23T05:02:56.864Z,52.63
2023-02-23T05:05:23.293Z,48.22
2023-02-23T05:07:49.797Z,46.00
2023-02-23T05:10:16.258Z,46.42
2023-02-23T05:12:42.809Z,54.78
2023-02-23T05:15:10.956Z,47.75
2023-02-23T05:17:41.122Z,50.28
2023-02-23T05:20:11.506Z,46.30
2023-02-23T05:22:37.973Z,54.00
2023-02-23T05:25:06.270Z,51.67
2023-02-23T05:27:32.692Z,51.03
2023-02-23T05:29:59.134Z,49.40
2023-02-23T05:32:25.622Z,50.43
2023-02-23T05:34:52.046Z,48.38
2023-02-23T05:37:19.915Z,52.70
2023-02-23T05:39:47.264Z,46.10
2023-02-23T05:42:13.648Z,49.92
2023-02-23T05:44:40.047Z,51.53
2023-02-23T05:47:06.446Z,48.40
2023-02-23T05:49:32.804Z,49.90
2023-02-23T05:51:59.129Z,49.72
2023-02-23T05:54:25.809Z,50.00
2023-02-23T05:56:52.301Z,50.93
2023-02-23T05:59:18.686Z,47.38
2023-02-23T06:01:45.299Z,52.30
2023-02-23T06:04:11.694Z,46.53
2023-02-23T06:06:38.065Z,46.33
2023-02-23T06:09:04.599Z,49.03
2023-02-23T06:11:31.797Z,48.80
2023-02-23T06:13:59.484Z,46.63
2023-02-23T06:16:27.398Z,47.25
2023-02-23T06:18:53.952Z,47.13
2023-02-23T06:21:21.317Z,45.37
2023-02-23T06:23:47.762Z,48.38
2023-02-23T06:26:14.119Z,45.45
2023-02-23T06:28:40.431Z,41.42
2023-02-23T06:31:06.981Z,42.15
2023-02-23T06:33:33.613Z,40.10
2023-02-23T06:36:00.045Z,47.75
2023-02-23T06:38:27.910Z,38.55
2023-02-23T06:40:54.344Z,42.70
2023-02-23T06:43:23.089Z,41.38
2023-02-23T06:45:49.878Z,40.90
2023-02-23T06:48:17.475Z,42.70
2023-02-23T06:50:43.777Z,39.47
2023-02-23T06:53:10.110Z,40.28
2023-02-23T06:55:36.481Z,47.30
2023-02-23T06:58:03.536Z,38.73
2023-02-23T07:00:30.545Z,40.60
2023-02-23T07:02:57.822Z,40.03
2023-02-23T07:05:24.214Z,40.15
2023-02-23T07:07:52.085Z,38.30
2023-02-23T07:10:18.606Z,40.67
2023-02-23T07:12:44.937Z,45.53
2023-02-23T07:15:11.594Z,41.70
2023-02-23T07:17:38.197Z,42.88
2023-02-23T07:20:05.029Z,43.25
2023-02-23T07:22:31.371Z,40.83
2023-02-23T07:24:57.786Z,42.75
2023-02-23T07:27:24.714Z,42.28
2023-02-23T07:29:51.109Z,43.97
2023-02-23T07:32:17.638Z,40.28
2023-02-23T07:34:44.180Z,42.70
2023-02-23T07:37:10.704Z,45.45
2023-02-23T07:39:37.070Z,43.20
2023-02-23T07:42:04.113Z,41.35
2023-02-23T07:44:30.505Z,50.35
2023-02-23T07:46:57.658Z,47.27
2023-02-23T07:49:25.401Z,50.13
2023-02-23T07:51:51.761Z,52.25
2023-02-23T07:54:18.169Z,46.88
2023-02-23T07:56:44.562Z,50.40
2023-02-23T07:59:10.929Z,49.13
2023-02-23T08:01:37.260Z,45.15
2023-02-23T08:04:03.764Z,50.38
2023-02-23T08:06:30.582Z,53.42
2023-02-23T08:09:00.282Z,47.42
2023-02-23T08:11:29.070Z,45.83
2023-02-23T08:13:59.884Z,47.25
2023-02-23T08:16:31.730Z,47.60
2023-02-23T08:18:59.291Z,47.45
2023-02-23T08:21:27.528Z,49.30
2023-02-23T08:23:53.892Z,56.13
2023-02-23T08:26:20.234Z,48.22
2023-02-23T08:28:46.646Z,49.08
2023-02-23T08:31:16.157Z,50.15
2023-02-23T08:33:42.608Z,49.92
2023-02-23T08:36:09.061Z,44.93
2023-02-23T08:38:38.818Z,47.25
2023-02-23T08:41:05.928Z,51.75
2023-02-23T08:43:32.351Z,48.35
2023-02-23T08:45:58.784Z,50.72
2023-02-23T08:48:25.589Z,47.27
2023-02-23T08:50:56.521Z,45.17
2023-02-23T08:53:25.666Z,42.92
2023-02-23T08:56:02.985Z,38.92
2023-02-23T08:58:31.141Z,47.10
2023-02-23T09:00:58.292Z,47.37
2023-02-23T09:03:26.357Z,43.13
2023-02-23T09:05:53.154Z,39.85
2023-02-23T09:08:20.230Z,45.95
2023-02-23T09:10:46.899Z,47.13
2023-02-23T09:13:13.525Z,40.60
2023-02-23T09:15:40.968Z,45.42
2023-02-23T09:18:10.303Z,43.65
2023-02-23T09:20:36.745Z,42.97
2023-02-23T09:23:03.183Z,44.75
2023-02-23T09:25:31.466Z,42.93
2023-02-23T09:27:59.528Z,41.38
2023-02-23T09:30:27.166Z,37.13
2023-02-23T09:32:55.176Z,38.10
2023-02-23T09:35:24.328Z,37.60
2023-02-23T09:37:53.363Z,39.77
2023-02-23T09:40:35.139Z,38.83
2023-02-23T09:43:15.308Z,35.83
2023-02-23T09:45:51.222Z,32.78
2023-02-23T09:48:21.187Z,31.45
2023-02-23T09:50:56.989Z,30.97
2023-02-23T09:53:36.958Z,33.40
2023-02-23T09:56:18.519Z,28.88
2023-02-23T09:58:44.960Z,32.42
2023-02-23T10:01:41.022Z,28.00
2023-02-23T10:04:25.974Z,36.23
2023-02-23T10:07:21.088Z,32.13
2023-02-23T10:09:57.724Z,32.03
2023-02-23T10:12:55.013Z,30.30
2023-02-23T10:15:56.061Z,28.83
2023-02-23T10:18:46.500Z,27.77
2023-02-23T10:21:38.207Z,28.65
2023-02-23T10:24:43.178Z,28.08
2023-02-23T10:27:19.765Z,25.50
2023-02-23T10:29:51.478Z,25.85
2023-02-23T10:32:36.334Z,27.67
2023-02-23T10:35:11.124Z,31.02
2023-02-23T10:37:37.980Z,29.27
2023-02-23T10:40:06.311Z,34.03
2023-02-23T10:42:32.969Z,29.17
2023-02-23T10:45:00.098Z,26.20
2023-02-23T10:47:31.126Z,22.35
2023-02-23T10:49:58.653Z,24.70
2023-02-23T10:52:33.992Z,26.58
2023-02-23T10:55:04.141Z,27.42
2023-02-23T10:57:32.806Z,20.70
2023-02-23T11:00:04.392Z,18.98
2023-02-23T11:02:31.023Z,23.13
2023-02-23T11:04:59.721Z,22.70
2023-02-23T11:07:31.367Z,21.95
2023-02-23T11:09:59.512Z,23.70
2023-02-23T11:12:36.276Z,23.90
2023-02-23T11:15:48.551Z,22.27
2023-02-23T11:18:23.444Z,20.77
2023-02-23T11:20:51.201Z,20.45
2023-02-23T11:23:24.592Z,25.10
2023-02-23T11:25:55.479Z,22.33
2023-02-23T11:28:27.645Z,21.88
2023-02-23T11:30:54.122Z,18.45
2023-02-23T11:33:26.998Z,17.33
2023-02-23T11:36:00.783Z,15.43
2023-02-23T11:38:30.317Z,19.98
2023-02-23T11:41:01.659Z,17.55
2023-02-23T11:43:28.168Z,18.60
2023-02-23T11:46:00.627Z,16.25
2023-02-23T11:48:50.490Z,16.77
2023-02-23T11:51:24.979Z,15.32
2023-02-23T11:53:52.044Z,13.98
2023-02-23T11:56:25.530Z,19.30
2023-02-23T11:59:02.393Z,15.57
2023-02-23T12:01:45.237Z,20.53
2023-02-23T12:04:29.515Z,18.90
2023-02-23T12:07:21.967Z,18.02
2023-02-23T12:09:53.033Z,18.85
2023-02-23T12:12:24.299Z,18.77
2023-02-23T12:15:00.616Z,19.87
2023-02-23T12:17:33.694Z,15.70
2023-02-23T12:20:15.758Z,18.67
2023-02-23T12:23:05.257Z,19.70
2023-02-23T12:25:39.826Z,19.52
2023-02-23T12:28:37.776Z,19.67
2023-02-23T12:31:30.376Z,22.98
2023-02-23T12:34:01.971Z,20.70
2023-02-23T12:36:39.486Z,23.30
2023-02-23T12:39:18.950Z,17.50
2023-02-23T12:41:51.522Z,19.53
2023-02-23T12:44:33.844Z,21.73
2023-02-23T12:47:12.145Z,21.77
2023-02-23T12:49:46.051Z,17.23
2023-02-23T12:52:32.046Z,15.70
2023-02-23T12:54:58.477Z,20.03
2023-02-23T12:57:54.888Z,19.45
2023-02-23T13:00:40.327Z,19.83
2023-02-23T13:03:40.779Z,22.23
2023-02-23T13:06:17.348Z,20.85
2023-02-23T13:09:10.001Z,17.67
2023-02-23T13:11:45.312Z,21.40
2023-02-23T13:14:25.495Z,20.55
2023-02-23T13:17:00.314Z,15.30
2023-02-23T13:19:42.417Z,13.13
2023-02-23T13:22:36.552Z,17.80
2023-02-23T13:25:13.014Z,16.95
2023-02-23T13:27:51.655Z,14.15
2023-02-23T13:30:20.662Z,12.55
2023-02-23T13:32:47.305Z,12.02
2023-02-23T13:35:16.492Z,13.67
2023-02-23T13:37:54.127Z,12.57
2023-02-23T13:40:29.977Z,18.50
2023-02-23T13:43:17.581Z,12.48
2023-02-23T13:45:55.905Z,16.50
2023-02-23T13:48:56.145Z,14.03
2023-02-23T13:51:45.102Z,12.40
2023-02-23T13:54:15.012Z,17.40
2023-02-23T13:56:47.548Z,19.00
2023-02-23T13:59:23.691Z,17.50
2023-02-23T14:01:53.316Z,17.33
2023-02-23T14:04:29.470Z,16.90
2023-02-23T14:07:11.207Z,14.02
2023-02-23T14:09:44.456Z,18.15
2023-02-23T14:12:10.781Z,18.65
2023-02-23T14:14:37.309Z,14.47
2023-02-23T14:17:15.722Z,11.13
2023-02-23T14:19:44.192Z,9.48
2023-02-23T14:22:15.820Z,17.38
2023-02-23T14:24:42.171Z,15.57
2023-02-23T14:27:42.533Z,15.73
2023-02-23T14:30:11.942Z,13.35
2023-02-23T14:32:47.311Z,15.07
2023-02-23T14:35:32.299Z,15.20
2023-02-23T14:38:01.119Z,18.13
2023-02-23T14:40:39.391Z,32.70
2023-02-23T14:43:43.756Z,19.75
2023-02-23T14:46:25.865Z,21.80
2023-02-23T14:49:10.122Z,26.58
2023-02-23T14:51:44.385Z,26.38
2023-02-23T14:54:32.878Z,25.90
2023-02-23T14:57:02.138Z,27.10
2023-02-23T14:59:40.329Z,27.80
2023-02-23T15:02:19.173Z,23.92
2023-02-23T15:04:46.192Z,26.83
2023-02-23T15:07:38.512Z,27.37
2023-02-23T15:10:11.634Z,26.25
2023-02-23T15:12:39.004Z,32.10
2023-02-23T15:15:14.583Z,33.15
2023-02-23T15:17:44.644Z,32.75
2023-02-23T15:20:17.216Z,29.00
2023-02-23T15:22:48.437Z,22.88
2023-02-23T15:25:27.919Z,18.15
2023-02-23T15:27:55.948Z,17.33
2023-02-23T15:30:27.392Z,12.95
2023-02-23T15:33:06.047Z,11.00
2023-02-23T15:35:45.018Z,8.95
2023-02-23T15:38:40.375Z,10.02
2023-02-23T15:41:07.624Z,17.08
2023-02-23T15:43:34.561Z,13.73
2023-02-23T15:46:04.302Z,11.27
2023-02-23T15:48:41.248Z,19.33
2023-02-23T15:51:15.175Z,21.33
2023-02-23T15:53:41.705Z,16.92
2023-02-23T15:56:20.078Z,19.88
2023-02-23T15:58:57.063Z,14.13
2023-02-23T16:01:27.256Z,7.57
2023-02-23T16:04:06.467Z,7.57
2023-02-23T16:06:36.023Z,12.65
2023-02-23T16:09:24.128Z,8.55
2023-02-23T16:12:03.019Z,7.93
2023-02-23T16:14:44.810Z,8.35
2023-02-23T16:17:25.308Z,16.05
2023-02-23T16:19:54.117Z,9.00
2023-02-23T16:22:25.198Z,10.07
2023-02-23T16:25:01.684Z,9.87
2023-02-23T16:27:29.639Z,16.45
2023-02-23T16:30:00.421Z,13.18
2023-02-23T16:32:35.569Z,16.13
2023-02-23T16:35:14.043Z,20.33
2023-02-23T16:37:58.905Z,11.63
2023-02-23T16:40:25.459Z,15.30
2023-02-23T16:42:53.992Z,19.50
2023-02-23T16:45:21.341Z,11.90
2023-02-23T16:47:48.004Z,12.88
2023-02-23T16:50:25.080Z,11.17
2023-02-23T16:52:53.412Z,17.05
2023-02-23T16:55:28.215Z,14.15
2023-02-23T16:57:58.027Z,16.85
2023-02-23T17:00:28.720Z,16.67
2023-02-23T17:02:57.382Z,21.13
2023-02-23T17:05:24.286Z,12.52
2023-02-23T17:07:51.853Z,19.58
2023-02-23T17:10:25.179Z,18.08
2023-02-23T17:12:53.410Z,16.88
2023-02-23T17:15:22.155Z,17.17
2023-02-23T17:17:48.945Z,14.07
2023-02-23T17:20:17.577Z,15.50
2023-02-23T17:22:44.457Z,18.60
2023-02-23T17:25:11.225Z,18.50
2023-02-23T17:27:37.633Z,25.73
2023-02-23T17:30:06.296Z,14.15
2023-02-23T17:32:33.401Z,19.65
2023-02-23T17:34:59.908Z,15.10
2023-02-23T17:37:26.305Z,14.23
2023-02-23T17:39:52.650Z,12.93
2023-02-23T17:42:19.346Z,18.77
2023-02-23T17:44:45.785Z,15.23
2023-02-23T17:47:12.202Z,17.55
2023-02-23T17:49:38.726Z,10.32
2023-02-23T17:52:05.141Z,14.67
2023-02-23T17:54:31.531Z,16.98
2023-02-23T17:56:57.924Z,7.95
2023-02-23T17:59:24.419Z,14.90
2023-02-23T18:01:51.061Z,22.20
2023-02-23T18:04:17.502Z,14.20
2023-02-23T18:06:44.589Z,18.27
2023-02-23T18:09:14.492Z,17.67
2023-02-23T18:11:40.957Z,12.40
2023-02-23T18:14:07.947Z,19.60
2023-02-23T18:16:34.553Z,15.77
2023-02-23T18:19:00.938Z,14.90
2023-02-23T18:21:27.711Z,13.95
2023-02-23T18:23:54.381Z,18.23
2023-02-23T18:26:24.282Z,10.73
2023-02-23T18:28:51.481Z,17.63
2023-02-23T18:31:21.598Z,15.38
2023-02-23T18:33:54.659Z,16.58
2023-02-23T18:36:32.303Z,18.38
2023-02-23T18:39:00.567Z,17.45
2023-02-23T18:41:30.615Z,12.50
2023-02-23T18:44:01.730Z,20.70
2023-02-23T18:46:29.035Z,14.57
2023-02-23T18:48:55.543Z,11.38
2023-02-23T18:51:23.038Z,15.43
2023-02-23T18:53:50.601Z,24.87
2023-02-23T18:56:22.952Z,16.45
2023-02-23T18:58:50.374Z,9.60
2023-02-23T19:01:22.464Z,11.07
2023-02-23T19:03:50.674Z,13.02
2023-02-23T19:06:18.984Z,5.17
2023-02-23T19:08:53.899Z,9.57
2023-02-23T19:11:24.051Z,13.10
2023-02-23T19:13:54.848Z,8.73
2023-02-23T19:16:22.075Z,7.43
2023-02-23T19:18:48.467Z,9.80
2023-02-23T19:21:17.164Z,15.35
2023-02-23T19:23:44.648Z,7.22
2023-02-23T19:26:11.792Z,16.20
2023-02-23T19:28:38.282Z,9.63
2023-02-23T19:31:12.256Z,17.00
2023-02-23T19:33:39.229Z,8.82
2023-02-23T19:36:06.613Z,9.23
2023-02-23T19:38:33.361Z,9.50
2023-02-23T19:40:59.772Z,6.72
2023-02-23T19:43:26.360Z,14.07
2023-02-23T19:45:52.937Z,6.78
2023-02-23T19:48:19.426Z,8.10
2023-02-23T19:50:48.022Z,9.57
2023-02-23T19:53:15.898Z,15.63
2023-02-23T19:55:42.978Z,5.97
2023-02-23T19:58:09.681Z,9.82
2023-02-23T20:00:36.116Z,6.22
2023-02-23T20:03:06.316Z,11.43
2023-02-23T20:05:42.966Z,10.15
2023-02-23T20:08:10.039Z,4.73
2023-02-23T20:10:41.505Z,10.90
2023-02-23T20:13:08.130Z,13.02
2023-02-23T20:15:34.627Z,5.35
2023-02-23T20:18:00.998Z,13.40
2023-02-23T20:20:29.064Z,7.83
2023-02-23T20:22:55.979Z,11.10
2023-02-23T20:25:23.303Z,8.93
2023-02-23T20:27:50.709Z,14.20
2023-02-23T20:30:17.989Z,9.50
2023-02-23T20:32:44.891Z,9.33
2023-02-23T20:35:14.862Z,8.48
2023-02-23T20:37:41.687Z,10.88
2023-02-23T20:40:23.134Z,5.53
2023-02-23T20:42:51.166Z,8.50
2023-02-23T20:45:20.745Z,7.17
2023-02-23T20:47:51.890Z,5.60
2023-02-23T20:50:31.012Z,6.85
2023-02-23T20:52:59.330Z,11.32
2023-02-23T20:55:27.010Z,10.82
2023-02-23T20:57:55.303Z,6.20
2023-02-23T21:00:23.994Z,13.65
2023-02-23T21:02:55.481Z,8.23
2023-02-23T21:05:24.168Z,5.75
2023-02-23T21:07:50.542Z,8.68
2023-02-23T21:10:17.452Z,5.90
2023-02-23T21:12:43.837Z,6.57
2023-02-23T21:15:11.234Z,12.20
2023-02-23T21:17:38.436Z,14.13
2023-02-23T21:20:11.013Z,11.88
2023-02-23T21:22:38.453Z,7.50
2023-02-23T21:25:06.970Z,8.55
2023-02-23T21:27:33.522Z,6.78
2023-02-23T21:30:00.565Z,6.40
2023-02-23T21:32:30.899Z,9.52
2023-02-23T21:34:57.942Z,9.83
2023-02-23T21:37:24.572Z,9.32
2023-02-23T21:39:50.970Z,11.35
2023-02-23T21:42:23.018Z,8.88
2023-02-23T21:44:50.245Z,9.10
2023-02-23T21:47:16.619Z,16.67
2023-02-23T21:49:43.070Z,13.23
2023-02-23T21:52:09.914Z,7.72
2023-02-23T21:54:36.941Z,10.02
2023-02-23T21:57:04.485Z,7.72
2023-02-23T21:59:34.442Z,8.07
2023-02-23T22:02:00.897Z,6.88
2023-02-23T22:04:27.301Z,8.55
2023-02-23T22:06:53.626Z,8.25
2023-02-23T22:09:20.045Z,9.88
2023-02-23T22:11:47.461Z,8.93
2023-02-23T22:14:16.365Z,7.50
2023-02-23T22:16:43.036Z,4.97
2023-02-23T22:19:10.893Z,6.80
2023-02-23T22:21:41.655Z,8.20
2023-02-23T22:24:10.199Z,8.00
2023-02-23T22:26:41.713Z,9.85
2023-02-23T22:29:10.219Z,6.30
2023-02-23T22:31:37.787Z,7.95
2023-02-23T22:34:06.295Z,7.07
2023-02-23T22:36:34.262Z,4.97
2023-02-23T22:39:00.863Z,7.82
2023-02-23T22:41:29.663Z,5.72
2023-02-23T22:43:57.744Z,10.70
2023-02-23T22:46:25.911Z,8.65
2023-02-23T22:48:52.457Z,9.33
2023-02-23T22:51:22.031Z,7.95
2023-02-23T22:53:48.912Z,9.82
2023-02-23T22:56:15.495Z,8.60
2023-02-23T22:58:42.345Z,11.07
2023-02-23T23:01:11.567Z,8.80
2023-02-23T23:03:45.882Z,9.05
2023-02-23T23:06:22.915Z,7.20
2023-02-23T23:08:51.863Z,7.35
2023-02-23T23:11:22.981Z,10.77
2023-02-23T23:13:52.771Z,8.97
2023-02-23T23:16:31.047Z,11.07
2023-02-23T23:19:04.613Z,11.32
2023-02-23T23:21:33.494Z,5.70
2023-02-23T23:24:05.926Z,6.85
2023-02-23T23:26:34.849Z,4.93
2023-02-23T23:29:04.754Z,6.57
2023-02-23T23:31:34.924Z,11.65
2023-02-23T23:34:07.228Z,6.35
2023-02-23T23:36:37.364Z,8.48
2023-02-23T23:39:06.156Z,10.00
2023-02-23T23:41:35.700Z,4.57
2023-02-23T23:44:05.204Z,7.88
2023-02-23T23:46:37.488Z,4.93
2023-02-23T23:49:08.115Z,6.07
2023-02-23T23:51:44.646Z,10.17
2023-02-23T23:54:17.924Z,11.55
2023-02-23T23:56:44.972Z,8.98
2023-02-23T23:59:17.896Z,6.80
